North Amityville, New York
Current Conditions -  °F | °C
As of 11:53 AM on Saturday 27 Dec 2014 (Local Time) from KFRG Reporting Station
Clear Clear  
Wind Chill: 53°   Ceiling: Unl
Heat Index: 53°   Visibility: 10mi
Dew Point: 33°   Wind: 0mph
Humidity: 47%   Direction: NA
Pressure: 30.23"   Gusts: NA
Location:  40.6858°N, 73.4152°W
Report Text: KFRG 271653Z 00000KT 10SM CLR 12/01 A3023 RMK AO2 SLP236 T01170006
Loading
Personal Weather Stations






























Interactive Weather Map New forecast layout! Learn more

10-Day Weather Forecast

Advertisements
Track Severe Weather on mobile